sensor_id;sensor_type;location;lat;lon;timestamp;P1;durP1;ratioP1;P2;durP2;ratioP2
56718;SDS011;42597;40.636;0.278;2023-07-29T00:00:44;9.18;;;4.60;;
56718;SDS011;42597;40.636;0.278;2023-07-29T00:03:10;8.18;;;3.58;;
56718;SDS011;42597;40.636;0.278;2023-07-29T00:05:39;10.35;;;3.88;;
56718;SDS011;42597;40.636;0.278;2023-07-29T00:08:05;10.30;;;4.13;;
56718;SDS011;42597;40.636;0.278;2023-07-29T00:10:31;9.93;;;3.90;;
56718;SDS011;42597;40.636;0.278;2023-07-29T00:12:58;9.73;;;3.63;;
56718;SDS011;42597;40.636;0.278;2023-07-29T00:15:23;10.88;;;3.90;;
56718;SDS011;42597;40.636;0.278;2023-07-29T00:17:49;8.65;;;4.75;;
56718;SDS011;42597;40.636;0.278;2023-07-29T00:20:14;9.00;;;4.10;;
56718;SDS011;42597;40.636;0.278;2023-07-29T00:22:40;7.95;;;3.70;;
56718;SDS011;42597;40.636;0.278;2023-07-29T00:25:06;9.77;;;4.25;;
56718;SDS011;42597;40.636;0.278;2023-07-29T00:27:32;8.05;;;3.67;;
56718;SDS011;42597;40.636;0.278;2023-07-29T00:29:57;10.45;;;5.05;;
56718;SDS011;42597;40.636;0.278;2023-07-29T00:32:23;10.00;;;4.32;;
56718;SDS011;42597;40.636;0.278;2023-07-29T00:34:48;9.82;;;5.07;;
56718;SDS011;42597;40.636;0.278;2023-07-29T00:37:14;6.65;;;3.85;;
56718;SDS011;42597;40.636;0.278;2023-07-29T00:39:39;8.95;;;4.45;;
56718;SDS011;42597;40.636;0.278;2023-07-29T00:42:06;14.02;;;3.38;;
56718;SDS011;42597;40.636;0.278;2023-07-29T00:44:31;10.77;;;4.57;;
56718;SDS011;42597;40.636;0.278;2023-07-29T00:46:57;11.63;;;4.65;;
56718;SDS011;42597;40.636;0.278;2023-07-29T00:51:51;8.00;;;4.25;;
56718;SDS011;42597;40.636;0.278;2023-07-29T00:54:17;8.13;;;4.63;;
56718;SDS011;42597;40.636;0.278;2023-07-29T00:56:42;8.13;;;4.78;;
56718;SDS011;42597;40.636;0.278;2023-07-29T00:59:08;10.95;;;5.72;;
56718;SDS011;42597;40.636;0.278;2023-07-29T01:01:33;7.38;;;4.68;;
56718;SDS011;42597;40.636;0.278;2023-07-29T01:03:59;10.77;;;5.55;;
56718;SDS011;42597;40.636;0.278;2023-07-29T01:12:20;12.15;;;6.10;;
56718;SDS011;42597;40.636;0.278;2023-07-29T01:17:39;10.38;;;4.93;;
56718;SDS011;42597;40.636;0.278;2023-07-29T01:20:09;8.77;;;5.07;;
56718;SDS011;42597;40.636;0.278;2023-07-29T01:22:38;10.13;;;5.75;;
56718;SDS011;42597;40.636;0.278;2023-07-29T01:25:05;8.48;;;4.93;;
56718;SDS011;42597;40.636;0.278;2023-07-29T01:27:31;10.60;;;5.63;;
56718;SDS011;42597;40.636;0.278;2023-07-29T01:29:57;7.55;;;5.20;;
56718;SDS011;42597;40.636;0.278;2023-07-29T01:32:38;9.05;;;5.78;;
56718;SDS011;42597;40.636;0.278;2023-07-29T01:37:48;12.57;;;6.37;;
56718;SDS011;42597;40.636;0.278;2023-07-29T01:40:17;8.95;;;5.32;;
56718;SDS011;42597;40.636;0.278;2023-07-29T01:42:43;12.05;;;6.03;;
56718;SDS011;42597;40.636;0.278;2023-07-29T01:45:11;11.95;;;6.38;;
56718;SDS011;42597;40.636;0.278;2023-07-29T01:47:36;10.23;;;5.22;;
56718;SDS011;42597;40.636;0.278;2023-07-29T01:50:05;11.55;;;5.38;;
56718;SDS011;42597;40.636;0.278;2023-07-29T01:52:31;11.38;;;6.13;;
56718;SDS011;42597;40.636;0.278;2023-07-29T01:54:57;9.35;;;6.22;;
56718;SDS011;42597;40.636;0.278;2023-07-29T01:57:22;13.00;;;7.05;;
56718;SDS011;42597;40.636;0.278;2023-07-29T01:59:48;8.13;;;6.32;;
56718;SDS011;42597;40.636;0.278;2023-07-29T02:02:13;10.25;;;6.07;;
56718;SDS011;42597;40.636;0.278;2023-07-29T02:04:39;10.68;;;6.95;;
56718;SDS011;42597;40.636;0.278;2023-07-29T02:07:04;11.30;;;7.00;;
56718;SDS011;42597;40.636;0.278;2023-07-29T02:09:30;9.45;;;7.20;;
56718;SDS011;42597;40.636;0.278;2023-07-29T02:11:56;9.73;;;6.07;;
56718;SDS011;42597;40.636;0.278;2023-07-29T02:14:22;8.75;;;6.63;;
56718;SDS011;42597;40.636;0.278;2023-07-29T02:16:48;11.75;;;8.43;;
56718;SDS011;42597;40.636;0.278;2023-07-29T02:19:14;8.15;;;6.15;;
56718;SDS011;42597;40.636;0.278;2023-07-29T02:21:40;7.13;;;5.15;;
56718;SDS011;42597;40.636;0.278;2023-07-29T02:24:05;10.15;;;6.35;;
56718;SDS011;42597;40.636;0.278;2023-07-29T02:26:31;12.80;;;8.98;;
56718;SDS011;42597;40.636;0.278;2023-07-29T02:28:56;10.00;;;8.13;;
56718;SDS011;42597;40.636;0.278;2023-07-29T02:31:23;14.23;;;8.88;;
56718;SDS011;42597;40.636;0.278;2023-07-29T02:33:50;11.17;;;8.53;;
56718;SDS011;42597;40.636;0.278;2023-07-29T02:36:16;11.07;;;7.07;;
56718;SDS011;42597;40.636;0.278;2023-07-29T02:38:42;11.98;;;7.97;;
56718;SDS011;42597;40.636;0.278;2023-07-29T02:41:08;14.52;;;8.57;;
56718;SDS011;42597;40.636;0.278;2023-07-29T02:43:35;10.90;;;8.50;;
56718;SDS011;42597;40.636;0.278;2023-07-29T02:46:01;8.43;;;6.97;;
56718;SDS011;42597;40.636;0.278;2023-07-29T02:48:27;10.30;;;7.28;;
56718;SDS011;42597;40.636;0.278;2023-07-29T02:50:53;9.73;;;7.57;;
56718;SDS011;42597;40.636;0.278;2023-07-29T02:53:19;13.65;;;8.07;;
56718;SDS011;42597;40.636;0.278;2023-07-29T02:55:45;10.77;;;7.38;;
56718;SDS011;42597;40.636;0.278;2023-07-29T02:58:11;9.60;;;7.15;;
56718;SDS011;42597;40.636;0.278;2023-07-29T03:00:36;12.57;;;7.47;;
56718;SDS011;42597;40.636;0.278;2023-07-29T03:03:02;10.57;;;7.70;;
56718;SDS011;42597;40.636;0.278;2023-07-29T03:05:27;9.63;;;6.88;;
56718;SDS011;42597;40.636;0.278;2023-07-29T03:07:53;11.05;;;7.70;;
56718;SDS011;42597;40.636;0.278;2023-07-29T03:10:19;8.23;;;6.57;;
56718;SDS011;42597;40.636;0.278;2023-07-29T03:12:45;8.27;;;6.28;;
56718;SDS011;42597;40.636;0.278;2023-07-29T03:15:11;8.05;;;6.72;;
56718;SDS011;42597;40.636;0.278;2023-07-29T03:17:37;10.25;;;7.18;;
56718;SDS011;42597;40.636;0.278;2023-07-29T03:20:02;9.27;;;6.97;;
56718;SDS011;42597;40.636;0.278;2023-07-29T03:22:28;11.73;;;7.45;;
56718;SDS011;42597;40.636;0.278;2023-07-29T03:24:53;12.32;;;7.80;;
56718;SDS011;42597;40.636;0.278;2023-07-29T03:27:19;10.50;;;7.43;;
56718;SDS011;42597;40.636;0.278;2023-07-29T03:29:44;9.20;;;7.18;;
56718;SDS011;42597;40.636;0.278;2023-07-29T03:32:10;11.07;;;8.07;;
56718;SDS011;42597;40.636;0.278;2023-07-29T03:34:36;8.35;;;6.15;;
56718;SDS011;42597;40.636;0.278;2023-07-29T03:37:02;8.73;;;6.90;;
56718;SDS011;42597;40.636;0.278;2023-07-29T03:39:28;10.00;;;7.03;;
56718;SDS011;42597;40.636;0.278;2023-07-29T03:41:53;9.77;;;7.20;;
56718;SDS011;42597;40.636;0.278;2023-07-29T03:44:19;10.85;;;7.25;;
56718;SDS011;42597;40.636;0.278;2023-07-29T03:46:44;10.02;;;6.50;;
56718;SDS011;42597;40.636;0.278;2023-07-29T03:49:10;12.95;;;7.13;;
56718;SDS011;42597;40.636;0.278;2023-07-29T03:51:36;9.00;;;6.60;;
56718;SDS011;42597;40.636;0.278;2023-07-29T03:54:01;11.52;;;7.18;;
56718;SDS011;42597;40.636;0.278;2023-07-29T03:56:27;9.13;;;6.03;;
56718;SDS011;42597;40.636;0.278;2023-07-29T03:58:52;9.07;;;7.22;;
56718;SDS011;42597;40.636;0.278;2023-07-29T04:01:18;8.88;;;7.28;;
56718;SDS011;42597;40.636;0.278;2023-07-29T04:03:45;8.10;;;6.70;;
56718;SDS011;42597;40.636;0.278;2023-07-29T04:06:11;14.43;;;8.30;;
56718;SDS011;42597;40.636;0.278;2023-07-29T04:08:37;10.25;;;7.93;;
56718;SDS011;42597;40.636;0.278;2023-07-29T04:11:03;11.27;;;8.60;;
56718;SDS011;42597;40.636;0.278;2023-07-29T04:13:28;11.60;;;6.95;;
56718;SDS011;42597;40.636;0.278;2023-07-29T04:15:54;9.00;;;7.53;;
56718;SDS011;42597;40.636;0.278;2023-07-29T04:18:19;8.35;;;5.97;;
56718;SDS011;42597;40.636;0.278;2023-07-29T04:20:45;10.35;;;6.60;;
56718;SDS011;42597;40.636;0.278;2023-07-29T04:23:10;10.88;;;5.90;;
56718;SDS011;42597;40.636;0.278;2023-07-29T04:25:36;12.10;;;7.43;;
56718;SDS011;42597;40.636;0.278;2023-07-29T04:28:01;8.25;;;6.65;;
56718;SDS011;42597;40.636;0.278;2023-07-29T04:30:28;13.05;;;6.80;;
56718;SDS011;42597;40.636;0.278;2023-07-29T04:32:54;9.77;;;8.27;;
56718;SDS011;42597;40.636;0.278;2023-07-29T04:35:19;10.43;;;7.95;;
56718;SDS011;42597;40.636;0.278;2023-07-29T04:37:45;14.35;;;9.05;;
56718;SDS011;42597;40.636;0.278;2023-07-29T04:40:13;9.95;;;7.55;;
56718;SDS011;42597;40.636;0.278;2023-07-29T04:42:38;9.65;;;6.97;;
56718;SDS011;42597;40.636;0.278;2023-07-29T04:45:04;9.25;;;6.90;;
56718;SDS011;42597;40.636;0.278;2023-07-29T04:47:30;10.52;;;7.95;;
56718;SDS011;42597;40.636;0.278;2023-07-29T04:49:55;10.00;;;8.02;;
56718;SDS011;42597;40.636;0.278;2023-07-29T04:52:21;8.48;;;6.40;;
56718;SDS011;42597;40.636;0.278;2023-07-29T04:54:47;13.27;;;9.73;;
56718;SDS011;42597;40.636;0.278;2023-07-29T04:57:12;11.05;;;8.38;;
56718;SDS011;42597;40.636;0.278;2023-07-29T04:59:38;14.75;;;7.72;;
56718;SDS011;42597;40.636;0.278;2023-07-29T05:02:03;9.82;;;7.13;;
56718;SDS011;42597;40.636;0.278;2023-07-29T05:04:29;9.68;;;7.80;;
56718;SDS011;42597;40.636;0.278;2023-07-29T05:06:54;14.80;;;9.18;;
56718;SDS011;42597;40.636;0.278;2023-07-29T05:09:20;12.10;;;8.27;;
56718;SDS011;42597;40.636;0.278;2023-07-29T05:11:46;11.30;;;8.50;;
56718;SDS011;42597;40.636;0.278;2023-07-29T05:14:15;11.38;;;8.80;;
56718;SDS011;42597;40.636;0.278;2023-07-29T05:16:42;15.45;;;9.43;;
56718;SDS011;42597;40.636;0.278;2023-07-29T05:19:08;11.85;;;9.13;;
56718;SDS011;42597;40.636;0.278;2023-07-29T05:21:34;14.73;;;8.73;;
56718;SDS011;42597;40.636;0.278;2023-07-29T05:23:59;19.70;;;11.02;;
56718;SDS011;42597;40.636;0.278;2023-07-29T05:26:25;14.90;;;10.18;;
56718;SDS011;42597;40.636;0.278;2023-07-29T05:28:51;13.57;;;10.90;;
56718;SDS011;42597;40.636;0.278;2023-07-29T05:31:17;14.88;;;9.15;;
56718;SDS011;42597;40.636;0.278;2023-07-29T05:33:43;13.50;;;9.20;;
56718;SDS011;42597;40.636;0.278;2023-07-29T05:36:08;12.20;;;9.25;;
56718;SDS011;42597;40.636;0.278;2023-07-29T05:38:34;13.23;;;9.25;;
56718;SDS011;42597;40.636;0.278;2023-07-29T05:40:59;10.38;;;8.88;;
56718;SDS011;42597;40.636;0.278;2023-07-29T05:43:26;15.00;;;9.80;;
56718;SDS011;42597;40.636;0.278;2023-07-29T05:45:52;11.40;;;7.82;;
56718;SDS011;42597;40.636;0.278;2023-07-29T05:48:19;9.82;;;7.72;;
56718;SDS011;42597;40.636;0.278;2023-07-29T05:50:45;10.48;;;6.43;;
56718;SDS011;42597;40.636;0.278;2023-07-29T05:53:11;21.55;;;7.82;;
56718;SDS011;42597;40.636;0.278;2023-07-29T05:55:36;10.35;;;7.57;;
56718;SDS011;42597;40.636;0.278;2023-07-29T05:58:02;11.55;;;7.30;;
56718;SDS011;42597;40.636;0.278;2023-07-29T06:00:27;11.68;;;7.50;;
56718;SDS011;42597;40.636;0.278;2023-07-29T06:02:53;9.25;;;7.00;;
56718;SDS011;42597;40.636;0.278;2023-07-29T06:05:18;10.68;;;7.63;;
56718;SDS011;42597;40.636;0.278;2023-07-29T06:07:44;10.52;;;7.97;;
56718;SDS011;42597;40.636;0.278;2023-07-29T06:10:13;11.38;;;8.23;;
56718;SDS011;42597;40.636;0.278;2023-07-29T06:12:43;14.75;;;10.52;;
56718;SDS011;42597;40.636;0.278;2023-07-29T06:15:09;12.25;;;7.97;;
56718;SDS011;42597;40.636;0.278;2023-07-29T06:17:35;13.00;;;8.07;;
56718;SDS011;42597;40.636;0.278;2023-07-29T06:20:00;11.98;;;9.05;;
56718;SDS011;42597;40.636;0.278;2023-07-29T06:22:26;14.60;;;11.45;;
56718;SDS011;42597;40.636;0.278;2023-07-29T06:24:51;13.30;;;9.93;;
56718;SDS011;42597;40.636;0.278;2023-07-29T06:27:17;12.57;;;8.60;;
56718;SDS011;42597;40.636;0.278;2023-07-29T06:29:42;12.68;;;9.88;;
56718;SDS011;42597;40.636;0.278;2023-07-29T06:32:08;13.25;;;9.93;;
56718;SDS011;42597;40.636;0.278;2023-07-29T06:34:34;11.80;;;9.02;;
56718;SDS011;42597;40.636;0.278;2023-07-29T06:36:59;11.85;;;9.18;;
56718;SDS011;42597;40.636;0.278;2023-07-29T06:39:25;13.93;;;8.43;;
56718;SDS011;42597;40.636;0.278;2023-07-29T06:41:50;15.88;;;10.50;;
56718;SDS011;42597;40.636;0.278;2023-07-29T06:44:16;13.88;;;9.20;;
56718;SDS011;42597;40.636;0.278;2023-07-29T06:46:41;12.30;;;9.20;;
56718;SDS011;42597;40.636;0.278;2023-07-29T06:49:07;14.25;;;8.80;;
56718;SDS011;42597;40.636;0.278;2023-07-29T06:51:32;11.55;;;8.60;;
56718;SDS011;42597;40.636;0.278;2023-07-29T06:54:00;12.50;;;9.20;;
56718;SDS011;42597;40.636;0.278;2023-07-29T06:56:27;11.13;;;8.07;;
56718;SDS011;42597;40.636;0.278;2023-07-29T06:58:53;13.25;;;9.13;;
56718;SDS011;42597;40.636;0.278;2023-07-29T07:01:18;14.80;;;10.85;;
56718;SDS011;42597;40.636;0.278;2023-07-29T07:03:44;14.57;;;10.60;;
56718;SDS011;42597;40.636;0.278;2023-07-29T07:06:09;17.33;;;12.77;;
56718;SDS011;42597;40.636;0.278;2023-07-29T07:08:35;12.52;;;10.10;;
56718;SDS011;42597;40.636;0.278;2023-07-29T07:11:00;18.02;;;10.75;;
56718;SDS011;42597;40.636;0.278;2023-07-29T07:13:26;18.13;;;15.77;;
56718;SDS011;42597;40.636;0.278;2023-07-29T07:15:54;14.45;;;10.18;;
56718;SDS011;42597;40.636;0.278;2023-07-29T07:18:20;18.67;;;16.02;;
56718;SDS011;42597;40.636;0.278;2023-07-29T07:20:50;17.35;;;13.23;;
56718;SDS011;42597;40.636;0.278;2023-07-29T07:23:17;23.92;;;17.25;;
56718;SDS011;42597;40.636;0.278;2023-07-29T07:25:43;23.60;;;16.23;;
56718;SDS011;42597;40.636;0.278;2023-07-29T07:28:09;31.05;;;17.25;;
56718;SDS011;42597;40.636;0.278;2023-07-29T07:30:35;23.58;;;15.40;;
56718;SDS011;42597;40.636;0.278;2023-07-29T07:33:04;28.45;;;15.45;;
56718;SDS011;42597;40.636;0.278;2023-07-29T07:35:29;18.95;;;15.45;;
56718;SDS011;42597;40.636;0.278;2023-07-29T07:37:55;24.52;;;18.70;;
56718;SDS011;42597;40.636;0.278;2023-07-29T07:40:20;22.10;;;18.15;;
56718;SDS011;42597;40.636;0.278;2023-07-29T07:42:46;19.55;;;16.30;;
56718;SDS011;42597;40.636;0.278;2023-07-29T07:45:11;20.00;;;15.77;;
56718;SDS011;42597;40.636;0.278;2023-07-29T07:47:37;22.77;;;17.52;;
56718;SDS011;42597;40.636;0.278;2023-07-29T07:50:03;20.63;;;16.23;;
56718;SDS011;42597;40.636;0.278;2023-07-29T07:52:28;19.67;;;15.27;;
56718;SDS011;42597;40.636;0.278;2023-07-29T07:54:54;22.55;;;18.23;;
56718;SDS011;42597;40.636;0.278;2023-07-29T07:57:20;18.60;;;15.77;;
56718;SDS011;42597;40.636;0.278;2023-07-29T07:59:46;24.50;;;19.17;;
56718;SDS011;42597;40.636;0.278;2023-07-29T08:02:12;21.92;;;17.50;;
56718;SDS011;42597;40.636;0.278;2023-07-29T08:04:38;21.70;;;17.13;;
56718;SDS011;42597;40.636;0.278;2023-07-29T08:07:03;20.60;;;15.93;;
56718;SDS011;42597;40.636;0.278;2023-07-29T08:09:29;29.20;;;19.23;;
56718;SDS011;42597;40.636;0.278;2023-07-29T08:11:55;25.75;;;18.30;;
56718;SDS011;42597;40.636;0.278;2023-07-29T08:14:20;29.42;;;18.45;;
56718;SDS011;42597;40.636;0.278;2023-07-29T08:16:46;22.90;;;18.42;;
56718;SDS011;42597;40.636;0.278;2023-07-29T08:19:11;27.92;;;18.52;;
56718;SDS011;42597;40.636;0.278;2023-07-29T08:21:37;27.65;;;17.75;;
56718;SDS011;42597;40.636;0.278;2023-07-29T08:24:05;26.83;;;16.35;;
56718;SDS011;42597;40.636;0.278;2023-07-29T08:26:32;23.75;;;15.90;;
56718;SDS011;42597;40.636;0.278;2023-07-29T08:28:57;18.25;;;15.60;;
56718;SDS011;42597;40.636;0.278;2023-07-29T08:31:23;20.45;;;15.70;;
56718;SDS011;42597;40.636;0.278;2023-07-29T08:33:48;20.85;;;15.93;;
56718;SDS011;42597;40.636;0.278;2023-07-29T08:36:14;22.58;;;18.10;;
56718;SDS011;42597;40.636;0.278;2023-07-29T08:38:40;27.98;;;19.08;;
56718;SDS011;42597;40.636;0.278;2023-07-29T08:41:10;26.80;;;16.75;;
56718;SDS011;42597;40.636;0.278;2023-07-29T08:43:48;21.25;;;16.17;;
56718;SDS011;42597;40.636;0.278;2023-07-29T08:46:19;20.48;;;15.18;;
56718;SDS011;42597;40.636;0.278;2023-07-29T08:48:45;19.40;;;15.38;;
56718;SDS011;42597;40.636;0.278;2023-07-29T08:51:11;21.48;;;15.23;;
56718;SDS011;42597;40.636;0.278;2023-07-29T08:53:38;18.50;;;14.50;;
56718;SDS011;42597;40.636;0.278;2023-07-29T08:56:04;19.50;;;14.57;;
56718;SDS011;42597;40.636;0.278;2023-07-29T08:58:32;21.90;;;14.95;;
56718;SDS011;42597;40.636;0.278;2023-07-29T09:00:58;19.08;;;15.05;;
56718;SDS011;42597;40.636;0.278;2023-07-29T09:03:23;18.08;;;14.57;;
56718;SDS011;42597;40.636;0.278;2023-07-29T09:05:49;18.40;;;15.88;;
56718;SDS011;42597;40.636;0.278;2023-07-29T09:08:15;17.42;;;14.35;;
56718;SDS011;42597;40.636;0.278;2023-07-29T09:10:41;19.35;;;14.98;;
56718;SDS011;42597;40.636;0.278;2023-07-29T09:13:07;17.80;;;13.93;;
56718;SDS011;42597;40.636;0.278;2023-07-29T09:15:33;22.70;;;15.10;;
56718;SDS011;42597;40.636;0.278;2023-07-29T09:18:21;19.00;;;15.13;;
56718;SDS011;42597;40.636;0.278;2023-07-29T09:20:47;19.50;;;14.15;;
56718;SDS011;42597;40.636;0.278;2023-07-29T09:23:14;18.95;;;14.02;;
56718;SDS011;42597;40.636;0.278;2023-07-29T09:25:40;19.17;;;13.95;;
56718;SDS011;42597;40.636;0.278;2023-07-29T09:28:09;29.08;;;14.60;;
56718;SDS011;42597;40.636;0.278;2023-07-29T09:30:40;15.02;;;12.13;;
56718;SDS011;42597;40.636;0.278;2023-07-29T09:33:10;12.52;;;11.20;;
56718;SDS011;42597;40.636;0.278;2023-07-29T09:35:36;16.85;;;11.93;;
56718;SDS011;42597;40.636;0.278;2023-07-29T09:38:03;19.85;;;13.38;;
56718;SDS011;42597;40.636;0.278;2023-07-29T09:40:36;13.93;;;10.18;;
56718;SDS011;42597;40.636;0.278;2023-07-29T09:43:03;19.08;;;11.75;;
56718;SDS011;42597;40.636;0.278;2023-07-29T09:45:29;20.75;;;10.95;;
56718;SDS011;42597;40.636;0.278;2023-07-29T09:47:57;15.93;;;12.98;;
56718;SDS011;42597;40.636;0.278;2023-07-29T09:50:26;13.88;;;10.82;;
56718;SDS011;42597;40.636;0.278;2023-07-29T09:52:53;18.35;;;13.18;;
56718;SDS011;42597;40.636;0.278;2023-07-29T09:55:23;14.23;;;11.10;;
56718;SDS011;42597;40.636;0.278;2023-07-29T09:57:59;13.43;;;8.88;;
56718;SDS011;42597;40.636;0.278;2023-07-29T10:00:30;15.70;;;9.70;;
56718;SDS011;42597;40.636;0.278;2023-07-29T10:02:57;10.13;;;9.02;;
56718;SDS011;42597;40.636;0.278;2023-07-29T10:05:25;16.92;;;10.95;;
56718;SDS011;42597;40.636;0.278;2023-07-29T10:07:52;19.15;;;10.15;;
56718;SDS011;42597;40.636;0.278;2023-07-29T10:10:18;23.00;;;10.10;;
56718;SDS011;42597;40.636;0.278;2023-07-29T10:12:45;12.38;;;8.70;;
56718;SDS011;42597;40.636;0.278;2023-07-29T10:15:12;11.73;;;9.27;;
56718;SDS011;42597;40.636;0.278;2023-07-29T10:17:38;13.18;;;8.10;;
56718;SDS011;42597;40.636;0.278;2023-07-29T10:20:04;9.55;;;8.48;;
56718;SDS011;42597;40.636;0.278;2023-07-29T10:22:39;12.25;;;7.63;;
56718;SDS011;42597;40.636;0.278;2023-07-29T10:25:15;9.75;;;7.05;;
56718;SDS011;42597;40.636;0.278;2023-07-29T10:27:44;9.02;;;6.65;;
56718;SDS011;42597;40.636;0.278;2023-07-29T10:30:14;10.13;;;6.40;;
56718;SDS011;42597;40.636;0.278;2023-07-29T10:32:43;10.98;;;6.90;;
56718;SDS011;42597;40.636;0.278;2023-07-29T10:35:10;9.25;;;7.53;;
56718;SDS011;42597;40.636;0.278;2023-07-29T10:37:36;11.23;;;6.63;;
56718;SDS011;42597;40.636;0.278;2023-07-29T10:40:05;13.00;;;7.90;;
56718;SDS011;42597;40.636;0.278;2023-07-29T10:42:32;12.98;;;6.85;;
56718;SDS011;42597;40.636;0.278;2023-07-29T10:44:58;12.95;;;8.40;;
56718;SDS011;42597;40.636;0.278;2023-07-29T10:47:27;9.65;;;6.88;;
56718;SDS011;42597;40.636;0.278;2023-07-29T10:49:57;13.70;;;7.00;;
56718;SDS011;42597;40.636;0.278;2023-07-29T10:55:02;8.90;;;6.93;;
56718;SDS011;42597;40.636;0.278;2023-07-29T10:57:36;13.40;;;8.02;;
56718;SDS011;42597;40.636;0.278;2023-07-29T11:00:07;10.88;;;7.22;;
56718;SDS011;42597;40.636;0.278;2023-07-29T11:02:34;14.45;;;7.35;;
56718;SDS011;42597;40.636;0.278;2023-07-29T11:05:04;10.68;;;7.03;;
56718;SDS011;42597;40.636;0.278;2023-07-29T11:07:31;15.20;;;6.85;;
56718;SDS011;42597;40.636;0.278;2023-07-29T11:10:12;13.23;;;7.60;;
56718;SDS011;42597;40.636;0.278;2023-07-29T11:17:38;12.32;;;7.20;;
56718;SDS011;42597;40.636;0.278;2023-07-29T11:20:06;10.48;;;6.82;;
56718;SDS011;42597;40.636;0.278;2023-07-29T11:22:33;14.15;;;8.30;;
56718;SDS011;42597;40.636;0.278;2023-07-29T11:25:00;11.75;;;7.57;;
56718;SDS011;42597;40.636;0.278;2023-07-29T11:27:25;14.45;;;7.45;;
56718;SDS011;42597;40.636;0.278;2023-07-29T11:30:01;10.77;;;6.45;;
56718;SDS011;42597;40.636;0.278;2023-07-29T11:32:30;12.07;;;6.35;;
56718;SDS011;42597;40.636;0.278;2023-07-29T11:34:56;13.95;;;7.13;;
56718;SDS011;42597;40.636;0.278;2023-07-29T11:37:22;10.80;;;5.85;;
56718;SDS011;42597;40.636;0.278;2023-07-29T11:39:47;11.75;;;6.75;;
56718;SDS011;42597;40.636;0.278;2023-07-29T11:42:13;18.55;;;7.32;;
56718;SDS011;42597;40.636;0.278;2023-07-29T11:44:39;10.50;;;6.38;;
56718;SDS011;42597;40.636;0.278;2023-07-29T11:47:06;11.70;;;5.70;;
56718;SDS011;42597;40.636;0.278;2023-07-29T11:49:33;10.75;;;7.40;;
56718;SDS011;42597;40.636;0.278;2023-07-29T11:52:00;12.18;;;7.10;;
56718;SDS011;42597;40.636;0.278;2023-07-29T11:54:27;9.95;;;6.82;;
56718;SDS011;42597;40.636;0.278;2023-07-29T11:56:53;13.13;;;7.15;;
56718;SDS011;42597;40.636;0.278;2023-07-29T11:59:19;11.35;;;5.78;;
56718;SDS011;42597;40.636;0.278;2023-07-29T12:01:45;9.15;;;5.03;;
56718;SDS011;42597;40.636;0.278;2023-07-29T12:04:10;12.85;;;7.60;;
56718;SDS011;42597;40.636;0.278;2023-07-29T12:06:37;9.13;;;6.68;;
56718;SDS011;42597;40.636;0.278;2023-07-29T12:09:03;14.48;;;6.78;;
56718;SDS011;42597;40.636;0.278;2023-07-29T12:11:29;9.35;;;6.32;;
56718;SDS011;42597;40.636;0.278;2023-07-29T12:13:55;10.57;;;5.72;;
56718;SDS011;42597;40.636;0.278;2023-07-29T12:16:21;14.55;;;6.38;;
56718;SDS011;42597;40.636;0.278;2023-07-29T12:18:46;11.05;;;6.90;;
56718;SDS011;42597;40.636;0.278;2023-07-29T12:21:14;14.07;;;6.43;;
56718;SDS011;42597;40.636;0.278;2023-07-29T12:23:39;9.65;;;6.57;;
56718;SDS011;42597;40.636;0.278;2023-07-29T12:26:05;8.02;;;5.38;;
56718;SDS011;42597;40.636;0.278;2023-07-29T12:28:31;8.57;;;5.88;;
56718;SDS011;42597;40.636;0.278;2023-07-29T12:30:57;8.70;;;5.55;;
56718;SDS011;42597;40.636;0.278;2023-07-29T12:33:31;13.18;;;6.80;;
56718;SDS011;42597;40.636;0.278;2023-07-29T12:35:58;9.32;;;5.63;;
56718;SDS011;42597;40.636;0.278;2023-07-29T12:38:27;9.27;;;5.78;;
56718;SDS011;42597;40.636;0.278;2023-07-29T12:40:53;9.43;;;4.47;;
56718;SDS011;42597;40.636;0.278;2023-07-29T12:43:19;10.90;;;5.47;;
56718;SDS011;42597;40.636;0.278;2023-07-29T12:45:44;9.00;;;5.95;;
56718;SDS011;42597;40.636;0.278;2023-07-29T12:48:10;12.55;;;5.85;;
56718;SDS011;42597;40.636;0.278;2023-07-29T12:50:36;7.13;;;5.30;;
56718;SDS011;42597;40.636;0.278;2023-07-29T12:53:02;8.35;;;5.78;;
56718;SDS011;42597;40.636;0.278;2023-07-29T12:55:28;14.38;;;5.95;;
56718;SDS011;42597;40.636;0.278;2023-07-29T12:57:53;9.15;;;5.47;;
56718;SDS011;42597;40.636;0.278;2023-07-29T13:00:19;9.00;;;5.80;;
56718;SDS011;42597;40.636;0.278;2023-07-29T13:02:44;8.90;;;5.68;;
56718;SDS011;42597;40.636;0.278;2023-07-29T13:05:10;10.95;;;6.78;;
56718;SDS011;42597;40.636;0.278;2023-07-29T13:07:39;13.50;;;5.45;;
56718;SDS011;42597;40.636;0.278;2023-07-29T13:10:05;7.45;;;5.13;;
56718;SDS011;42597;40.636;0.278;2023-07-29T13:12:31;9.32;;;5.20;;
56718;SDS011;42597;40.636;0.278;2023-07-29T13:14:57;12.25;;;5.40;;
56718;SDS011;42597;40.636;0.278;2023-07-29T13:17:24;21.35;;;5.97;;
56718;SDS011;42597;40.636;0.278;2023-07-29T13:19:50;13.60;;;5.85;;
56718;SDS011;42597;40.636;0.278;2023-07-29T13:22:16;9.23;;;6.10;;
56718;SDS011;42597;40.636;0.278;2023-07-29T13:24:42;9.48;;;5.90;;
56718;SDS011;42597;40.636;0.278;2023-07-29T13:27:07;8.23;;;4.82;;
56718;SDS011;42597;40.636;0.278;2023-07-29T13:29:33;10.13;;;5.60;;
56718;SDS011;42597;40.636;0.278;2023-07-29T13:31:58;9.48;;;6.40;;
56718;SDS011;42597;40.636;0.278;2023-07-29T13:34:24;12.75;;;5.60;;
56718;SDS011;42597;40.636;0.278;2023-07-29T13:36:49;10.27;;;5.13;;
56718;SDS011;42597;40.636;0.278;2023-07-29T13:39:15;10.23;;;5.20;;
56718;SDS011;42597;40.636;0.278;2023-07-29T13:41:41;8.20;;;5.28;;
56718;SDS011;42597;40.636;0.278;2023-07-29T13:44:07;7.80;;;4.97;;
56718;SDS011;42597;40.636;0.278;2023-07-29T13:46:32;8.68;;;5.20;;
56718;SDS011;42597;40.636;0.278;2023-07-29T13:48:58;9.95;;;4.95;;
56718;SDS011;42597;40.636;0.278;2023-07-29T13:51:23;7.63;;;4.28;;
56718;SDS011;42597;40.636;0.278;2023-07-29T13:53:49;8.25;;;5.65;;
56718;SDS011;42597;40.636;0.278;2023-07-29T13:56:14;9.40;;;5.30;;
56718;SDS011;42597;40.636;0.278;2023-07-29T13:58:40;10.38;;;5.45;;
56718;SDS011;42597;40.636;0.278;2023-07-29T14:01:05;10.27;;;5.57;;
56718;SDS011;42597;40.636;0.278;2023-07-29T14:03:31;12.05;;;5.18;;
56718;SDS011;42597;40.636;0.278;2023-07-29T14:05:57;14.93;;;5.75;;
56718;SDS011;42597;40.636;0.278;2023-07-29T14:08:22;14.18;;;5.35;;
56718;SDS011;42597;40.636;0.278;2023-07-29T14:10:50;9.93;;;5.55;;
56718;SDS011;42597;40.636;0.278;2023-07-29T14:13:16;10.13;;;6.43;;
56718;SDS011;42597;40.636;0.278;2023-07-29T14:15:42;7.93;;;4.60;;
56718;SDS011;42597;40.636;0.278;2023-07-29T14:18:07;10.77;;;5.53;;
56718;SDS011;42597;40.636;0.278;2023-07-29T14:20:33;8.95;;;5.32;;
56718;SDS011;42597;40.636;0.278;2023-07-29T14:22:58;10.13;;;4.63;;
56718;SDS011;42597;40.636;0.278;2023-07-29T14:25:24;9.43;;;4.43;;
56718;SDS011;42597;40.636;0.278;2023-07-29T14:27:50;22.33;;;6.13;;
56718;SDS011;42597;40.636;0.278;2023-07-29T14:30:15;10.48;;;5.65;;
56718;SDS011;42597;40.636;0.278;2023-07-29T14:32:41;10.45;;;4.75;;
56718;SDS011;42597;40.636;0.278;2023-07-29T14:35:07;9.15;;;4.80;;
56718;SDS011;42597;40.636;0.278;2023-07-29T14:37:33;8.63;;;4.50;;
56718;SDS011;42597;40.636;0.278;2023-07-29T14:39:59;14.88;;;4.95;;
56718;SDS011;42597;40.636;0.278;2023-07-29T14:42:26;13.10;;;4.60;;
56718;SDS011;42597;40.636;0.278;2023-07-29T14:44:52;9.73;;;4.30;;
56718;SDS011;42597;40.636;0.278;2023-07-29T14:47:17;10.10;;;5.10;;
56718;SDS011;42597;40.636;0.278;2023-07-29T14:49:43;8.15;;;4.40;;
56718;SDS011;42597;40.636;0.278;2023-07-29T14:52:09;11.00;;;4.70;;